sensor_id;sensor_type;location;lat;lon;timestamp;temperature;humidity
1277;DHT22;631;51.024;13.826;2023-02-03T00:01:14;3.70;99.90
1277;DHT22;631;51.024;13.826;2023-02-03T00:03:39;3.70;99.90
1277;DHT22;631;51.024;13.826;2023-02-03T00:06:05;3.70;99.90
1277;DHT22;631;51.024;13.826;2023-02-03T00:08:31;3.70;99.90
1277;DHT22;631;51.024;13.826;2023-02-03T00:10:58;3.80;99.90
1277;DHT22;631;51.024;13.826;2023-02-03T00:13:24;3.70;99.90
1277;DHT22;631;51.024;13.826;2023-02-03T00:15:51;3.80;99.90
1277;DHT22;631;51.024;13.826;2023-02-03T00:18:17;3.80;99.90
1277;DHT22;631;51.024;13.826;2023-02-03T00:20:42;3.80;99.90
1277;DHT22;631;51.024;13.826;2023-02-03T00:23:10;3.80;99.90
1277;DHT22;631;51.024;13.826;2023-02-03T00:25:36;3.80;99.90
1277;DHT22;631;51.024;13.826;2023-02-03T00:28:02;3.80;99.90
1277;DHT22;631;51.024;13.826;2023-02-03T00:30:28;3.80;99.90
1277;DHT22;631;51.024;13.826;2023-02-03T00:32:54;3.80;99.90
1277;DHT22;631;51.024;13.826;2023-02-03T00:35:19;3.80;99.90
1277;DHT22;631;51.024;13.826;2023-02-03T00:37:52;3.80;99.90
1277;DHT22;631;51.024;13.826;2023-02-03T00:40:19;3.90;99.90
1277;DHT22;631;51.024;13.826;2023-02-03T00:42:46;3.90;99.90
1277;DHT22;631;51.024;13.826;2023-02-03T00:45:11;3.90;99.90
1277;DHT22;631;51.024;13.826;2023-02-03T00:47:37;3.90;99.90
1277;DHT22;631;51.024;13.826;2023-02-03T00:50:04;4.00;99.90
1277;DHT22;631;51.024;13.826;2023-02-03T00:52:29;4.00;99.90
1277;DHT22;631;51.024;13.826;2023-02-03T00:54:55;4.00;99.90
1277;DHT22;631;51.024;13.826;2023-02-03T00:57:21;4.00;99.90
1277;DHT22;631;51.024;13.826;2023-02-03T00:59:46;3.90;99.90
1277;DHT22;631;51.024;13.826;2023-02-03T01:02:12;3.90;99.90
1277;DHT22;631;51.024;13.826;2023-02-03T01:04:38;3.80;99.90
1277;DHT22;631;51.024;13.826;2023-02-03T01:07:03;3.70;99.90
1277;DHT22;631;51.024;13.826;2023-02-03T01:09:33;3.70;99.90
1277;DHT22;631;51.024;13.826;2023-02-03T01:11:59;3.70;99.90
1277;DHT22;631;51.024;13.826;2023-02-03T01:14:24;3.60;99.90
1277;DHT22;631;51.024;13.826;2023-02-03T01:16:50;3.70;99.90
1277;DHT22;631;51.024;13.826;2023-02-03T01:19:16;3.70;99.90
1277;DHT22;631;51.024;13.826;2023-02-03T01:21:41;3.70;99.90
1277;DHT22;631;51.024;13.826;2023-02-03T01:24:07;3.60;99.90
1277;DHT22;631;51.024;13.826;2023-02-03T01:26:34;3.60;99.90
1277;DHT22;631;51.024;13.826;2023-02-03T01:29:00;3.60;99.90
1277;DHT22;631;51.024;13.826;2023-02-03T01:31:31;3.60;99.90
1277;DHT22;631;51.024;13.826;2023-02-03T01:33:59;3.60;99.90
1277;DHT22;631;51.024;13.826;2023-02-03T01:36:27;3.60;99.90
1277;DHT22;631;51.024;13.826;2023-02-03T01:38:53;3.60;99.90
1277;DHT22;631;51.024;13.826;2023-02-03T01:41:21;3.70;99.90
1277;DHT22;631;51.024;13.826;2023-02-03T01:43:49;3.60;99.90
1277;DHT22;631;51.024;13.826;2023-02-03T01:46:29;3.60;99.90
1277;DHT22;631;51.024;13.826;2023-02-03T01:49:07;3.50;99.90
1277;DHT22;631;51.024;13.826;2023-02-03T01:51:35;3.50;99.90
1277;DHT22;631;51.024;13.826;2023-02-03T01:54:03;3.50;99.90
1277;DHT22;631;51.024;13.826;2023-02-03T01:56:31;3.50;99.90
1277;DHT22;631;51.024;13.826;2023-02-03T01:58:59;3.60;99.90
1277;DHT22;631;51.024;13.826;2023-02-03T02:01:27;3.50;99.90
1277;DHT22;631;51.024;13.826;2023-02-03T02:03:56;3.50;99.90
1277;DHT22;631;51.024;13.826;2023-02-03T02:06:23;3.60;99.90
1277;DHT22;631;51.024;13.826;2023-02-03T02:08:51;3.60;99.90
1277;DHT22;631;51.024;13.826;2023-02-03T02:11:18;3.60;99.90
1277;DHT22;631;51.024;13.826;2023-02-03T02:13:49;3.60;99.90
1277;DHT22;631;51.024;13.826;2023-02-03T02:16:22;3.70;99.90
1277;DHT22;631;51.024;13.826;2023-02-03T02:22:07;3.70;99.90
1277;DHT22;631;51.024;13.826;2023-02-03T02:25:03;3.80;99.90
1277;DHT22;631;51.024;13.826;2023-02-03T02:28:21;3.80;99.90
1277;DHT22;631;51.024;13.826;2023-02-03T02:31:39;3.80;99.90
1277;DHT22;631;51.024;13.826;2023-02-03T02:34:35;3.80;99.90
1277;DHT22;631;51.024;13.826;2023-02-03T02:37:25;3.80;99.90
1277;DHT22;631;51.024;13.826;2023-02-03T02:48:08;3.80;99.90
1277;DHT22;631;51.024;13.826;2023-02-03T02:50:39;3.80;99.90
1277;DHT22;631;51.024;13.826;2023-02-03T02:53:07;3.80;99.90
1277;DHT22;631;51.024;13.826;2023-02-03T02:55:36;3.80;99.90
1277;DHT22;631;51.024;13.826;2023-02-03T02:58:05;3.80;99.90
1277;DHT22;631;51.024;13.826;2023-02-03T03:00:34;3.80;99.90
1277;DHT22;631;51.024;13.826;2023-02-03T03:03:11;3.80;99.90
1277;DHT22;631;51.024;13.826;2023-02-03T03:05:38;3.80;99.90
1277;DHT22;631;51.024;13.826;2023-02-03T03:08:05;3.80;99.90
1277;DHT22;631;51.024;13.826;2023-02-03T03:10:31;3.80;99.90
1277;DHT22;631;51.024;13.826;2023-02-03T03:13:03;3.80;99.90
1277;DHT22;631;51.024;13.826;2023-02-03T03:15:31;3.80;99.90
1277;DHT22;631;51.024;13.826;2023-02-03T03:18:15;3.80;99.90
1277;DHT22;631;51.024;13.826;2023-02-03T03:20:45;3.80;99.90
1277;DHT22;631;51.024;13.826;2023-02-03T03:23:21;3.80;99.90
1277;DHT22;631;51.024;13.826;2023-02-03T03:25:53;3.80;99.90
1277;DHT22;631;51.024;13.826;2023-02-03T03:28:26;3.90;99.90
1277;DHT22;631;51.024;13.826;2023-02-03T03:30:52;3.90;99.90
1277;DHT22;631;51.024;13.826;2023-02-03T03:33:19;3.90;99.90
1277;DHT22;631;51.024;13.826;2023-02-03T03:35:51;4.00;99.90
1277;DHT22;631;51.024;13.826;2023-02-03T03:38:27;4.00;99.90
1277;DHT22;631;51.024;13.826;2023-02-03T03:41:13;4.00;99.90
1277;DHT22;631;51.024;13.826;2023-02-03T03:43:42;4.10;99.90
1277;DHT22;631;51.024;13.826;2023-02-03T03:46:13;4.10;99.90
1277;DHT22;631;51.024;13.826;2023-02-03T03:48:49;4.10;99.90
1277;DHT22;631;51.024;13.826;2023-02-03T03:51:22;4.10;99.90
1277;DHT22;631;51.024;13.826;2023-02-03T03:53:51;4.10;99.90
1277;DHT22;631;51.024;13.826;2023-02-03T03:56:23;4.20;99.90
1277;DHT22;631;51.024;13.826;2023-02-03T03:58:51;4.20;99.90
1277;DHT22;631;51.024;13.826;2023-02-03T04:01:19;4.20;99.90
1277;DHT22;631;51.024;13.826;2023-02-03T04:03:53;4.20;99.90
1277;DHT22;631;51.024;13.826;2023-02-03T04:06:20;4.30;99.90
1277;DHT22;631;51.024;13.826;2023-02-03T04:08:46;4.30;99.90
1277;DHT22;631;51.024;13.826;2023-02-03T04:11:11;4.30;99.90
1277;DHT22;631;51.024;13.826;2023-02-03T04:13:57;4.30;99.90
1277;DHT22;631;51.024;13.826;2023-02-03T04:16:22;4.30;99.90
1277;DHT22;631;51.024;13.826;2023-02-03T04:18:48;4.40;99.90
1277;DHT22;631;51.024;13.826;2023-02-03T04:21:14;4.40;99.90
1277;DHT22;631;51.024;13.826;2023-02-03T04:23:39;4.40;99.90
1277;DHT22;631;51.024;13.826;2023-02-03T04:26:05;4.50;99.90
1277;DHT22;631;51.024;13.826;2023-02-03T04:28:30;4.50;99.90
1277;DHT22;631;51.024;13.826;2023-02-03T04:30:59;4.50;99.90
1277;DHT22;631;51.024;13.826;2023-02-03T04:33:25;4.60;99.90
1277;DHT22;631;51.024;13.826;2023-02-03T04:35:51;4.60;99.90
1277;DHT22;631;51.024;13.826;2023-02-03T04:38:16;4.60;99.90
1277;DHT22;631;51.024;13.826;2023-02-03T04:40:42;4.70;99.90
1277;DHT22;631;51.024;13.826;2023-02-03T04:43:10;4.80;99.90
1277;DHT22;631;51.024;13.826;2023-02-03T04:45:37;5.10;99.90
1277;DHT22;631;51.024;13.826;2023-02-03T04:48:03;5.50;99.90
1277;DHT22;631;51.024;13.826;2023-02-03T04:50:31;5.60;99.90
1277;DHT22;631;51.024;13.826;2023-02-03T04:52:57;5.90;99.90
1277;DHT22;631;51.024;13.826;2023-02-03T04:55:25;6.10;99.90
1277;DHT22;631;51.024;13.826;2023-02-03T04:57:55;6.30;99.90
1277;DHT22;631;51.024;13.826;2023-02-03T05:00:21;6.40;99.90
1277;DHT22;631;51.024;13.826;2023-02-03T05:02:46;6.50;99.90
1277;DHT22;631;51.024;13.826;2023-02-03T05:05:12;6.50;99.90
1277;DHT22;631;51.024;13.826;2023-02-03T05:07:37;6.60;99.90
1277;DHT22;631;51.024;13.826;2023-02-03T05:10:03;6.60;99.90
1277;DHT22;631;51.024;13.826;2023-02-03T05:12:29;6.60;99.90
1277;DHT22;631;51.024;13.826;2023-02-03T05:14:54;6.70;99.90
1277;DHT22;631;51.024;13.826;2023-02-03T05:17:20;6.70;99.90
1277;DHT22;631;51.024;13.826;2023-02-03T05:19:45;6.70;99.90
1277;DHT22;631;51.024;13.826;2023-02-03T05:22:11;6.80;99.90
1277;DHT22;631;51.024;13.826;2023-02-03T05:24:37;6.80;99.90
1277;DHT22;631;51.024;13.826;2023-02-03T05:27:03;6.80;99.90
1277;DHT22;631;51.024;13.826;2023-02-03T05:29:28;6.90;99.90
1277;DHT22;631;51.024;13.826;2023-02-03T05:31:54;6.90;99.90
1277;DHT22;631;51.024;13.826;2023-02-03T05:34:20;6.90;99.90
1277;DHT22;631;51.024;13.826;2023-02-03T05:36:45;6.90;99.90
1277;DHT22;631;51.024;13.826;2023-02-03T05:39:11;6.90;99.90
1277;DHT22;631;51.024;13.826;2023-02-03T05:41:36;7.00;99.90
1277;DHT22;631;51.024;13.826;2023-02-03T05:44:25;7.00;99.90
1277;DHT22;631;51.024;13.826;2023-02-03T05:46:53;7.00;99.90
1277;DHT22;631;51.024;13.826;2023-02-03T05:49:18;7.10;99.90
1277;DHT22;631;51.024;13.826;2023-02-03T05:51:45;7.10;99.90
1277;DHT22;631;51.024;13.826;2023-02-03T05:54:11;7.10;99.90
1277;DHT22;631;51.024;13.826;2023-02-03T05:56:37;7.20;99.90
1277;DHT22;631;51.024;13.826;2023-02-03T05:59:03;7.10;99.90
1277;DHT22;631;51.024;13.826;2023-02-03T06:01:29;7.20;99.90
1277;DHT22;631;51.024;13.826;2023-02-03T06:03:55;7.20;99.90
1277;DHT22;631;51.024;13.826;2023-02-03T06:06:21;7.30;99.90
1277;DHT22;631;51.024;13.826;2023-02-03T06:08:46;7.30;99.90
1277;DHT22;631;51.024;13.826;2023-02-03T06:11:12;7.30;99.90
1277;DHT22;631;51.024;13.826;2023-02-03T06:13:38;7.30;99.90
1277;DHT22;631;51.024;13.826;2023-02-03T06:16:03;7.40;99.90
1277;DHT22;631;51.024;13.826;2023-02-03T06:18:30;7.50;99.90
1277;DHT22;631;51.024;13.826;2023-02-03T06:20:55;7.50;99.90
1277;DHT22;631;51.024;13.826;2023-02-03T06:23:21;7.40;99.90
1277;DHT22;631;51.024;13.826;2023-02-03T06:25:48;7.40;99.90
1277;DHT22;631;51.024;13.826;2023-02-03T06:28:14;7.40;99.90
1277;DHT22;631;51.024;13.826;2023-02-03T06:30:39;7.40;99.90
1277;DHT22;631;51.024;13.826;2023-02-03T06:33:05;7.40;99.90
1277;DHT22;631;51.024;13.826;2023-02-03T06:35:31;7.40;99.90
1277;DHT22;631;51.024;13.826;2023-02-03T06:37:56;7.40;99.90
1277;DHT22;631;51.024;13.826;2023-02-03T06:40:22;7.40;99.90
1277;DHT22;631;51.024;13.826;2023-02-03T06:42:48;7.50;99.90
1277;DHT22;631;51.024;13.826;2023-02-03T06:45:15;7.40;99.90
1277;DHT22;631;51.024;13.826;2023-02-03T06:47:42;7.40;99.90
1277;DHT22;631;51.024;13.826;2023-02-03T06:50:10;7.50;99.90
1277;DHT22;631;51.024;13.826;2023-02-03T06:52:36;7.50;99.90
1277;DHT22;631;51.024;13.826;2023-02-03T06:55:03;7.50;99.90
1277;DHT22;631;51.024;13.826;2023-02-03T06:57:28;7.50;99.90
1277;DHT22;631;51.024;13.826;2023-02-03T06:59:54;7.50;99.90
1277;DHT22;631;51.024;13.826;2023-02-03T07:02:20;7.50;99.90
1277;DHT22;631;51.024;13.826;2023-02-03T07:04:46;7.40;99.90
1277;DHT22;631;51.024;13.826;2023-02-03T07:07:11;7.40;99.90
1277;DHT22;631;51.024;13.826;2023-02-03T07:09:40;7.40;99.90
1277;DHT22;631;51.024;13.826;2023-02-03T07:12:07;7.40;99.90
1277;DHT22;631;51.024;13.826;2023-02-03T07:14:33;7.40;99.90
1277;DHT22;631;51.024;13.826;2023-02-03T07:17:04;7.40;99.90
1277;DHT22;631;51.024;13.826;2023-02-03T07:19:30;7.40;99.90
1277;DHT22;631;51.024;13.826;2023-02-03T07:21:56;7.50;99.90
1277;DHT22;631;51.024;13.826;2023-02-03T07:24:22;7.50;99.90
1277;DHT22;631;51.024;13.826;2023-02-03T07:26:47;7.50;99.90
1277;DHT22;631;51.024;13.826;2023-02-03T07:29:13;7.50;99.90
1277;DHT22;631;51.024;13.826;2023-02-03T07:31:39;7.60;99.90
1277;DHT22;631;51.024;13.826;2023-02-03T07:34:04;7.60;99.90
1277;DHT22;631;51.024;13.826;2023-02-03T07:36:31;7.70;99.90
1277;DHT22;631;51.024;13.826;2023-02-03T07:38:57;7.70;99.90
1277;DHT22;631;51.024;13.826;2023-02-03T07:41:22;7.80;99.90
1277;DHT22;631;51.024;13.826;2023-02-03T07:43:48;7.80;99.90
1277;DHT22;631;51.024;13.826;2023-02-03T07:46:14;7.80;99.90
1277;DHT22;631;51.024;13.826;2023-02-03T07:48:39;7.80;99.90
1277;DHT22;631;51.024;13.826;2023-02-03T07:51:05;7.80;99.90
1277;DHT22;631;51.024;13.826;2023-02-03T07:53:31;7.80;99.90
1277;DHT22;631;51.024;13.826;2023-02-03T07:56:01;7.70;99.90
1277;DHT22;631;51.024;13.826;2023-02-03T07:58:27;7.70;99.90
1277;DHT22;631;51.024;13.826;2023-02-03T08:00:53;7.60;99.90
1277;DHT22;631;51.024;13.826;2023-02-03T08:03:19;7.50;99.90
1277;DHT22;631;51.024;13.826;2023-02-03T08:05:44;7.50;99.90
1277;DHT22;631;51.024;13.826;2023-02-03T08:08:11;7.40;99.90
1277;DHT22;631;51.024;13.826;2023-02-03T08:10:36;7.30;99.90
1277;DHT22;631;51.024;13.826;2023-02-03T08:13:02;7.30;99.90
1277;DHT22;631;51.024;13.826;2023-02-03T08:15:28;7.30;99.90
1277;DHT22;631;51.024;13.826;2023-02-03T08:17:53;7.30;99.90
1277;DHT22;631;51.024;13.826;2023-02-03T08:20:19;7.20;99.90
1277;DHT22;631;51.024;13.826;2023-02-03T08:22:45;7.20;99.90
1277;DHT22;631;51.024;13.826;2023-02-03T08:25:11;7.20;99.90
1277;DHT22;631;51.024;13.826;2023-02-03T08:27:37;7.20;99.90
1277;DHT22;631;51.024;13.826;2023-02-03T08:30:04;7.20;99.90
1277;DHT22;631;51.024;13.826;2023-02-03T08:32:31;7.20;99.90
1277;DHT22;631;51.024;13.826;2023-02-03T08:34:57;7.20;99.90
1277;DHT22;631;51.024;13.826;2023-02-03T08:37:23;7.20;99.90
1277;DHT22;631;51.024;13.826;2023-02-03T08:39:49;7.20;99.90
1277;DHT22;631;51.024;13.826;2023-02-03T08:42:15;7.20;99.90
1277;DHT22;631;51.024;13.826;2023-02-03T08:44:41;7.30;99.90
1277;DHT22;631;51.024;13.826;2023-02-03T08:47:09;7.30;99.90
1277;DHT22;631;51.024;13.826;2023-02-03T08:49:35;7.30;99.90
1277;DHT22;631;51.024;13.826;2023-02-03T08:52:04;7.30;99.90
1277;DHT22;631;51.024;13.826;2023-02-03T08:54:30;7.30;99.90
1277;DHT22;631;51.024;13.826;2023-02-03T08:56:56;7.40;99.90
1277;DHT22;631;51.024;13.826;2023-02-03T08:59:22;7.40;99.90
1277;DHT22;631;51.024;13.826;2023-02-03T09:01:48;7.40;99.90
1277;DHT22;631;51.024;13.826;2023-02-03T09:04:16;7.40;99.90
1277;DHT22;631;51.024;13.826;2023-02-03T09:06:50;7.40;99.90
1277;DHT22;631;51.024;13.826;2023-02-03T09:09:16;7.40;99.90
1277;DHT22;631;51.024;13.826;2023-02-03T09:11:42;7.40;99.90
1277;DHT22;631;51.024;13.826;2023-02-03T09:14:08;7.40;99.90
1277;DHT22;631;51.024;13.826;2023-02-03T09:16:34;7.40;99.90
1277;DHT22;631;51.024;13.826;2023-02-03T09:19:00;7.30;99.90
1277;DHT22;631;51.024;13.826;2023-02-03T09:21:26;7.30;99.90
1277;DHT22;631;51.024;13.826;2023-02-03T09:23:51;7.40;99.90
1277;DHT22;631;51.024;13.826;2023-02-03T09:26:17;7.40;99.90
1277;DHT22;631;51.024;13.826;2023-02-03T09:28:43;7.40;99.90
1277;DHT22;631;51.024;13.826;2023-02-03T09:31:11;7.40;99.90
1277;DHT22;631;51.024;13.826;2023-02-03T09:33:38;7.40;99.90
1277;DHT22;631;51.024;13.826;2023-02-03T09:36:04;7.40;99.90
1277;DHT22;631;51.024;13.826;2023-02-03T09:38:32;7.40;99.90
1277;DHT22;631;51.024;13.826;2023-02-03T09:43:53;7.50;99.90
1277;DHT22;631;51.024;13.826;2023-02-03T09:46:31;7.50;99.90
1277;DHT22;631;51.024;13.826;2023-02-03T09:49:14;7.50;99.90
1277;DHT22;631;51.024;13.826;2023-02-03T09:51:51;7.50;99.90
1277;DHT22;631;51.024;13.826;2023-02-03T09:56:50;7.50;99.90
1277;DHT22;631;51.024;13.826;2023-02-03T09:59:24;7.50;99.90
1277;DHT22;631;51.024;13.826;2023-02-03T10:04:40;7.50;99.90
1277;DHT22;631;51.024;13.826;2023-02-03T10:07:15;7.50;99.90
1277;DHT22;631;51.024;13.826;2023-02-03T10:12:58;7.50;99.90
1277;DHT22;631;51.024;13.826;2023-02-03T10:18:23;7.60;99.90
1277;DHT22;631;51.024;13.826;2023-02-03T10:20:53;7.50;99.90
1277;DHT22;631;51.024;13.826;2023-02-03T10:23:28;7.50;99.90
1277;DHT22;631;51.024;13.826;2023-02-03T10:25:55;7.50;99.90
1277;DHT22;631;51.024;13.826;2023-02-03T10:28:24;7.60;99.90
1277;DHT22;631;51.024;13.826;2023-02-03T10:30:59;7.50;99.90
1277;DHT22;631;51.024;13.826;2023-02-03T10:33:27;7.50;99.90
1277;DHT22;631;51.024;13.826;2023-02-03T10:38:51;7.50;99.90
1277;DHT22;631;51.024;13.826;2023-02-03T10:41:20;7.50;99.90
1277;DHT22;631;51.024;13.826;2023-02-03T10:43:49;7.50;99.90
1277;DHT22;631;51.024;13.826;2023-02-03T10:46:18;7.40;99.90
1277;DHT22;631;51.024;13.826;2023-02-03T10:48:44;7.50;99.90
1277;DHT22;631;51.024;13.826;2023-02-03T10:51:29;7.50;99.90
1277;DHT22;631;51.024;13.826;2023-02-03T10:53:56;7.50;99.90
1277;DHT22;631;51.024;13.826;2023-02-03T10:56:26;7.50;99.90
1277;DHT22;631;51.024;13.826;2023-02-03T10:58:58;7.60;99.90
1277;DHT22;631;51.024;13.826;2023-02-03T11:01:39;7.60;99.90
1277;DHT22;631;51.024;13.826;2023-02-03T11:04:19;7.60;99.90
1277;DHT22;631;51.024;13.826;2023-02-03T11:07:05;7.60;99.90
1277;DHT22;631;51.024;13.826;2023-02-03T11:09:40;7.60;99.90
1277;DHT22;631;51.024;13.826;2023-02-03T11:14:41;7.60;99.90
1277;DHT22;631;51.024;13.826;2023-02-03T11:17:23;7.70;99.90
1277;DHT22;631;51.024;13.826;2023-02-03T11:19:52;7.60;99.90
1277;DHT22;631;51.024;13.826;2023-02-03T11:22:30;7.70;99.90
1277;DHT22;631;51.024;13.826;2023-02-03T11:24:59;7.70;99.90
1277;DHT22;631;51.024;13.826;2023-02-03T11:27:29;7.70;99.90
1277;DHT22;631;51.024;13.826;2023-02-03T11:30:16;7.80;99.90
1277;DHT22;631;51.024;13.826;2023-02-03T11:32:46;7.80;99.90
1277;DHT22;631;51.024;13.826;2023-02-03T11:35:20;7.80;99.90
1277;DHT22;631;51.024;13.826;2023-02-03T11:37:54;7.70;99.90
1277;DHT22;631;51.024;13.826;2023-02-03T11:45:16;7.70;99.90
1277;DHT22;631;51.024;13.826;2023-02-03T11:50:48;7.70;99.90
1277;DHT22;631;51.024;13.826;2023-02-03T11:53:18;7.70;99.90
1277;DHT22;631;51.024;13.826;2023-02-03T11:55:55;7.70;99.90
1277;DHT22;631;51.024;13.826;2023-02-03T12:26:13;8.00;99.90
1277;DHT22;631;51.024;13.826;2023-02-03T12:28:48;8.00;99.90
1277;DHT22;631;51.024;13.826;2023-02-03T12:37:02;8.10;99.90
1277;DHT22;631;51.024;13.826;2023-02-03T12:42:09;8.10;99.90
1277;DHT22;631;51.024;13.826;2023-02-03T12:44:49;8.20;99.90
1277;DHT22;631;51.024;13.826;2023-02-03T12:47:33;8.20;99.90
1277;DHT22;631;51.024;13.826;2023-02-03T12:50:09;8.20;99.90
1277;DHT22;631;51.024;13.826;2023-02-03T12:55:27;8.30;99.90
1277;DHT22;631;51.024;13.826;2023-02-03T12:57:58;8.40;99.90
1277;DHT22;631;51.024;13.826;2023-02-03T13:00:39;8.50;99.90
1277;DHT22;631;51.024;13.826;2023-02-03T13:03:29;8.60;99.90
1277;DHT22;631;51.024;13.826;2023-02-03T13:11:33;8.60;99.90
1277;DHT22;631;51.024;13.826;2023-02-03T13:14:19;8.50;99.90
1277;DHT22;631;51.024;13.826;2023-02-03T13:16:50;8.50;99.90
1277;DHT22;631;51.024;13.826;2023-02-03T13:19:20;8.40;99.90
1277;DHT22;631;51.024;13.826;2023-02-03T13:21:48;8.20;99.90
1277;DHT22;631;51.024;13.826;2023-02-03T13:24:14;8.00;99.90
1277;DHT22;631;51.024;13.826;2023-02-03T13:32:23;7.30;99.90
1277;DHT22;631;51.024;13.826;2023-02-03T13:35:13;7.10;99.90
1277;DHT22;631;51.024;13.826;2023-02-03T13:38:07;7.00;99.90
1277;DHT22;631;51.024;13.826;2023-02-03T13:43:09;7.00;99.90
1277;DHT22;631;51.024;13.826;2023-02-03T13:45:39;7.00;99.90
1277;DHT22;631;51.024;13.826;2023-02-03T13:48:21;7.00;99.90
1277;DHT22;631;51.024;13.826;2023-02-03T13:50:49;7.00;99.90
1277;DHT22;631;51.024;13.826;2023-02-03T13:53:21;7.10;99.90
1277;DHT22;631;51.024;13.826;2023-02-03T13:56:00;7.10;99.90
1277;DHT22;631;51.024;13.826;2023-02-03T13:58:35;7.20;99.90
1277;DHT22;631;51.024;13.826;2023-02-03T14:01:26;7.20;99.90
1277;DHT22;631;51.024;13.826;2023-02-03T14:03:52;7.20;99.90
1277;DHT22;631;51.024;13.826;2023-02-03T14:17:52;7.40;99.90
1277;DHT22;631;51.024;13.826;2023-02-03T14:22:54;7.40;99.90
1277;DHT22;631;51.024;13.826;2023-02-03T14:25:21;7.40;99.90
1277;DHT22;631;51.024;13.826;2023-02-03T14:27:48;7.40;99.90
1277;DHT22;631;51.024;13.826;2023-02-03T14:30:23;7.50;99.90
1277;DHT22;631;51.024;13.826;2023-02-03T14:32:55;7.50;99.90
1277;DHT22;631;51.024;13.826;2023-02-03T14:35:33;7.50;99.90
1277;DHT22;631;51.024;13.826;2023-02-03T14:38:02;7.50;99.90
1277;DHT22;631;51.024;13.826;2023-02-03T14:41:07;7.50;99.90
1277;DHT22;631;51.024;13.826;2023-02-03T14:44:03;7.60;99.90
1277;DHT22;631;51.024;13.826;2023-02-03T14:49:35;7.60;99.90
1277;DHT22;631;51.024;13.826;2023-02-03T14:55:45;7.60;99.90
1277;DHT22;631;51.024;13.826;2023-02-03T14:57:52;7.60;99.90
1277;DHT22;631;51.024;13.826;2023-02-03T15:05:45;7.60;99.90
1277;DHT22;631;51.024;13.826;2023-02-03T15:08:31;7.60;99.90
1277;DHT22;631;51.024;13.826;2023-02-03T15:10:58;7.60;99.90
1277;DHT22;631;51.024;13.826;2023-02-03T15:13:30;7.60;99.90
1277;DHT22;631;51.024;13.826;2023-02-03T15:16:02;7.50;99.90
1277;DHT22;631;51.024;13.826;2023-02-03T15:18:34;7.50;99.90
1277;DHT22;631;51.024;13.826;2023-02-03T15:21:05;7.60;99.90
1277;DHT22;631;51.024;13.826;2023-02-03T15:23:41;7.60;99.90
1277;DHT22;631;51.024;13.826;2023-02-03T15:26:19;7.50;99.90
1277;DHT22;631;51.024;13.826;2023-02-03T15:28:59;7.50;99.90
1277;DHT22;631;51.024;13.826;2023-02-03T15:33:51;7.40;99.90
1277;DHT22;631;51.024;13.826;2023-02-03T15:36:26;7.50;99.90
1277;DHT22;631;51.024;13.826;2023-02-03T15:39:01;7.40;99.90
1277;DHT22;631;51.024;13.826;2023-02-03T15:41:30;7.50;99.90
1277;DHT22;631;51.024;13.826;2023-02-03T15:44:02;7.50;99.90
1277;DHT22;631;51.024;13.826;2023-02-03T15:46:36;7.60;99.90
1277;DHT22;631;51.024;13.826;2023-02-03T15:49:41;7.50;99.90
1277;DHT22;631;51.024;13.826;2023-02-03T15:52:06;7.50;99.90
1277;DHT22;631;51.024;13.826;2023-02-03T15:54:36;7.50;99.90
1277;DHT22;631;51.024;13.826;2023-02-03T15:57:21;7.50;99.90
1277;DHT22;631;51.024;13.826;2023-02-03T16:00:01;7.50;99.90
1277;DHT22;631;51.024;13.826;2023-02-03T16:02:48;7.50;99.90
1277;DHT22;631;51.024;13.826;2023-02-03T16:05:31;7.50;99.90
1277;DHT22;631;51.024;13.826;2023-02-03T16:11:01;7.50;99.90
1277;DHT22;631;51.024;13.826;2023-02-03T16:13:28;7.60;99.90
1277;DHT22;631;51.024;13.826;2023-02-03T16:16:27;7.60;99.90
1277;DHT22;631;51.024;13.826;2023-02-03T16:19:02;7.60;99.90
1277;DHT22;631;51.024;13.826;2023-02-03T16:21:35;7.70;99.90
1277;DHT22;631;51.024;13.826;2023-02-03T16:24:02;7.70;99.90
1277;DHT22;631;51.024;13.826;2023-02-03T16:26:30;7.60;99.90
1277;DHT22;631;51.024;13.826;2023-02-03T16:29:10;7.60;99.90
1277;DHT22;631;51.024;13.826;2023-02-03T16:31:54;7.60;99.90
1277;DHT22;631;51.024;13.826;2023-02-03T16:34:39;7.70;99.90
1277;DHT22;631;51.024;13.826;2023-02-03T16:37:29;7.70;99.90
1277;DHT22;631;51.024;13.826;2023-02-03T16:40:18;7.70;99.90
1277;DHT22;631;51.024;13.826;2023-02-03T16:43:03;7.70;99.90
1277;DHT22;631;51.024;13.826;2023-02-03T16:45:56;7.80;99.90
1277;DHT22;631;51.024;13.826;2023-02-03T16:48:41;7.70;99.90
1277;DHT22;631;51.024;13.826;2023-02-03T16:51:26;7.80;99.90
1277;DHT22;631;51.024;13.826;2023-02-03T16:53:52;7.80;99.90
1277;DHT22;631;51.024;13.826;2023-02-03T16:56:18;7.80;99.90
1277;DHT22;631;51.024;13.826;2023-02-03T16:58:44;7.80;99.90
1277;DHT22;631;51.024;13.826;2023-02-03T17:01:11;7.80;99.90
1277;DHT22;631;51.024;13.826;2023-02-03T17:03:37;7.80;99.90
1277;DHT22;631;51.024;13.826;2023-02-03T17:06:06;7.80;99.90
1277;DHT22;631;51.024;13.826;2023-02-03T17:08:32;7.80;99.90
1277;DHT22;631;51.024;13.826;2023-02-03T17:11:10;7.80;99.90
1277;DHT22;631;51.024;13.826;2023-02-03T17:13:37;7.90;99.90
1277;DHT22;631;51.024;13.826;2023-02-03T17:16:11;7.80;99.90
1277;DHT22;631;51.024;13.826;2023-02-03T17:18:38;7.80;99.90
1277;DHT22;631;51.024;13.826;2023-02-03T17:21:06;7.90;99.90
1277;DHT22;631;51.024;13.826;2023-02-03T17:23:32;7.90;99.90
1277;DHT22;631;51.024;13.826;2023-02-03T17:25:59;7.90;99.90
1277;DHT22;631;51.024;13.826;2023-02-03T17:28:25;7.90;99.90
1277;DHT22;631;51.024;13.826;2023-02-03T17:31:15;7.80;99.90
1277;DHT22;631;51.024;13.826;2023-02-03T17:33:41;7.80;99.90
1277;DHT22;631;51.024;13.826;2023-02-03T17:36:13;7.80;99.90
1277;DHT22;631;51.024;13.826;2023-02-03T17:38:43;7.80;99.90
1277;DHT22;631;51.024;13.826;2023-02-03T17:41:14;7.80;99.90
1277;DHT22;631;51.024;13.826;2023-02-03T17:43:41;7.80;99.90
1277;DHT22;631;51.024;13.826;2023-02-03T17:46:08;7.80;99.90
1277;DHT22;631;51.024;13.826;2023-02-03T17:48:35;7.80;99.90
1277;DHT22;631;51.024;13.826;2023-02-03T17:53:31;7.90;99.90
1277;DHT22;631;51.024;13.826;2023-02-03T17:55:57;7.90;99.90
1277;DHT22;631;51.024;13.826;2023-02-03T17:58:22;8.00;99.90
1277;DHT22;631;51.024;13.826;2023-02-03T18:00:48;7.90;99.90
1277;DHT22;631;51.024;13.826;2023-02-03T18:03:14;7.90;99.90
1277;DHT22;631;51.024;13.826;2023-02-03T18:05:49;7.80;99.90
1277;DHT22;631;51.024;13.826;2023-02-03T18:08:15;7.90;99.90
1277;DHT22;631;51.024;13.826;2023-02-03T18:10:41;7.90;99.90
1277;DHT22;631;51.024;13.826;2023-02-03T18:13:06;7.80;99.90
1277;DHT22;631;51.024;13.826;2023-02-03T18:15:32;7.90;99.90
1277;DHT22;631;51.024;13.826;2023-02-03T18:17:58;8.00;99.90
1277;DHT22;631;51.024;13.826;2023-02-03T18:20:23;8.00;99.90
1277;DHT22;631;51.024;13.826;2023-02-03T18:22:49;8.00;99.90
1277;DHT22;631;51.024;13.826;2023-02-03T18:25:14;8.00;99.90
1277;DHT22;631;51.024;13.826;2023-02-03T18:27:42;8.00;99.90
1277;DHT22;631;51.024;13.826;2023-02-03T18:30:08;8.00;99.90
1277;DHT22;631;51.024;13.826;2023-02-03T18:32:36;8.10;99.90
1277;DHT22;631;51.024;13.826;2023-02-03T18:35:02;8.00;99.90
1277;DHT22;631;51.024;13.826;2023-02-03T18:37:28;8.00;99.90
1277;DHT22;631;51.024;13.826;2023-02-03T18:39:54;7.90;99.90
1277;DHT22;631;51.024;13.826;2023-02-03T18:42:19;8.00;99.90